createdAt,value
2023-03-27T00:01:16.490Z,96251.88
2023-03-27T00:03:43.073Z,96247.06
2023-03-27T00:06:17.259Z,96249.88
2023-03-27T00:08:46.396Z,96240.88
2023-03-27T00:11:13.816Z,96244.59
2023-03-27T00:13:49.055Z,96246.16
2023-03-27T00:16:18.772Z,96230.47
2023-03-27T00:18:45.955Z,96218.50
2023-03-27T00:21:12.650Z,96211.81
2023-03-27T00:23:39.236Z,96202.97
2023-03-27T00:26:06.164Z,96211.34
2023-03-27T00:28:32.901Z,96206.41
2023-03-27T00:30:59.832Z,96203.13
2023-03-27T00:33:26.955Z,96204.84
2023-03-27T00:35:54.290Z,96198.03
2023-03-27T00:38:21.081Z,96197.25
2023-03-27T00:40:50.836Z,96183.41
2023-03-27T00:43:29.085Z,96185.75
2023-03-27T00:46:02.831Z,96176.28
2023-03-27T00:48:33.274Z,96170.38
2023-03-27T00:50:59.994Z,96163.56
2023-03-27T00:53:30.041Z,96166.97
2023-03-27T00:56:01.506Z,96152.50
2023-03-27T00:58:42.166Z,96157.66
2023-03-27T01:01:12.287Z,96149.88
2023-03-27T01:03:41.425Z,96129.06
2023-03-27T01:06:09.607Z,96136.84
2023-03-27T01:08:39.436Z,96134.50
2023-03-27T01:11:33.255Z,96130.81
2023-03-27T01:14:08.938Z,96125.97
2023-03-27T01:16:42.637Z,96108.41
2023-03-27T01:19:24.784Z,96107.03
2023-03-27T01:22:06.891Z,96116.34
2023-03-27T01:24:56.474Z,96101.75
2023-03-27T01:27:54.757Z,96103.91
2023-03-27T01:30:31.896Z,96103.91
2023-03-27T01:33:18.425Z,96098.31
2023-03-27T01:36:13.289Z,96099.28
2023-03-27T01:39:08.279Z,96102.69
2023-03-27T01:41:42.648Z,96100.13
2023-03-27T01:44:19.811Z,96097.66
2023-03-27T01:46:53.245Z,96097.97
2023-03-27T01:49:24.174Z,96092.09
2023-03-27T01:52:06.538Z,96076.50
2023-03-27T01:54:38.397Z,96053.94
2023-03-27T01:57:09.104Z,96044.59
2023-03-27T01:59:41.735Z,96060.03
2023-03-27T02:02:23.486Z,96082.88
2023-03-27T02:04:57.202Z,96067.00
2023-03-27T02:07:38.494Z,96067.19
2023-03-27T02:10:09.107Z,96061.59
2023-03-27T02:12:43.660Z,96047.25
2023-03-27T02:15:23.053Z,96043.16
2023-03-27T02:18:05.245Z,96037.91
2023-03-27T02:20:38.351Z,96033.78
2023-03-27T02:23:06.408Z,96033.53
2023-03-27T02:25:36.124Z,96033.41
2023-03-27T02:28:29.214Z,96027.66
2023-03-27T02:31:32.733Z,96030.16
2023-03-27T02:34:13.245Z,96010.09
2023-03-27T02:36:45.402Z,96014.47
2023-03-27T02:39:22.469Z,96014.47
2023-03-27T02:41:57.050Z,96014.25
2023-03-27T02:44:32.918Z,96002.63
2023-03-27T02:47:14.850Z,95994.50
2023-03-27T02:49:53.916Z,95998.41
2023-03-27T02:52:31.038Z,95988.91
2023-03-27T02:55:07.489Z,95979.19
2023-03-27T02:57:40.797Z,95983.25
2023-03-27T03:00:25.940Z,95982.97
2023-03-27T03:03:00.609Z,95974.47
2023-03-27T03:05:27.607Z,95975.38
2023-03-27T03:07:54.453Z,95955.66
2023-03-27T03:10:21.470Z,95951.16
2023-03-27T03:12:48.020Z,95944.91
2023-03-27T03:15:14.648Z,95955.44
2023-03-27T03:17:41.231Z,95961.81
2023-03-27T03:20:09.903Z,95973.41
2023-03-27T03:22:39.998Z,95967.22
2023-03-27T03:25:07.853Z,95963.94
2023-03-27T03:27:34.450Z,95965.69
2023-03-27T03:30:01.312Z,95968.78
2023-03-27T03:32:28.152Z,95963.72
2023-03-27T03:34:57.063Z,95968.91
2023-03-27T03:37:28.721Z,95965.25
2023-03-27T03:39:55.889Z,95961.00
2023-03-27T03:42:24.224Z,95957.53
2023-03-27T03:44:51.095Z,95956.53
2023-03-27T03:47:17.807Z,95950.38
2023-03-27T03:49:44.468Z,95947.13
2023-03-27T03:52:11.066Z,95948.13
2023-03-27T03:54:38.813Z,95945.84
2023-03-27T03:57:05.717Z,95943.22
2023-03-27T03:59:32.551Z,95937.53
2023-03-27T04:01:59.197Z,95936.81
2023-03-27T04:04:25.890Z,95937.03
2023-03-27T04:06:53.151Z,95925.03
2023-03-27T04:09:19.783Z,95931.16
2023-03-27T04:11:47.069Z,95930.44
2023-03-27T04:14:13.770Z,95934.56
2023-03-27T04:16:40.331Z,95943.22
2023-03-27T04:19:07.206Z,95935.00
2023-03-27T04:21:33.761Z,95931.84
2023-03-27T04:24:02.587Z,95936.50
2023-03-27T04:26:29.779Z,95932.63
2023-03-27T04:28:56.586Z,95934.94
2023-03-27T04:31:23.165Z,95938.81
2023-03-27T04:33:52.341Z,95910.63
2023-03-27T04:36:19.712Z,95926.91
2023-03-27T04:38:47.985Z,95937.16
2023-03-27T04:41:14.766Z,95934.94
2023-03-27T04:43:41.948Z,95948.56
2023-03-27T04:46:09.393Z,95951.63
2023-03-27T04:48:38.526Z,95948.41
2023-03-27T04:51:06.904Z,95953.28
2023-03-27T04:53:36.139Z,95949.28
2023-03-27T04:56:03.131Z,95954.19
2023-03-27T04:58:29.745Z,95954.47
2023-03-27T05:00:57.560Z,95951.69
2023-03-27T05:03:24.512Z,95951.97
2023-03-27T05:05:51.230Z,95948.69
2023-03-27T05:08:18.476Z,95954.50
2023-03-27T05:10:46.517Z,95948.16
2023-03-27T05:13:13.289Z,95937.88
2023-03-27T05:15:39.814Z,95931.28
2023-03-27T05:18:07.494Z,95931.03
2023-03-27T05:20:34.727Z,95931.75
2023-03-27T05:23:01.379Z,95925.19
2023-03-27T05:25:29.030Z,95922.44
2023-03-27T05:27:55.599Z,95915.00
2023-03-27T05:30:24.663Z,95910.66
2023-03-27T05:32:53.610Z,95916.81
2023-03-27T05:35:23.417Z,95917.63
2023-03-27T05:37:52.721Z,95910.72
2023-03-27T05:40:25.286Z,95907.19
2023-03-27T05:42:53.365Z,95897.78
2023-03-27T05:45:20.951Z,95895.03
2023-03-27T05:47:56.041Z,95887.38
2023-03-27T05:50:25.507Z,95874.59
2023-03-27T05:52:59.585Z,95872.31
2023-03-27T05:55:28.063Z,95860.00
2023-03-27T05:57:55.287Z,95846.41
2023-03-27T06:00:25.818Z,95842.31
2023-03-27T06:02:57.324Z,95828.75
2023-03-27T06:05:25.068Z,95834.69
2023-03-27T06:07:52.191Z,95803.75
2023-03-27T06:10:20.535Z,95783.78
2023-03-27T06:12:48.952Z,95789.97
2023-03-27T06:15:16.339Z,95781.84
2023-03-27T06:17:44.089Z,95764.19
2023-03-27T06:20:12.593Z,95753.97
2023-03-27T06:22:46.267Z,95742.97
2023-03-27T06:25:14.181Z,95735.25
2023-03-27T06:27:45.551Z,95728.31
2023-03-27T06:30:13.718Z,95720.66
2023-03-27T06:32:52.466Z,95719.69
2023-03-27T06:35:20.338Z,95717.34
2023-03-27T06:37:51.271Z,95737.84
2023-03-27T06:40:24.378Z,95753.72
2023-03-27T06:43:05.896Z,95745.59
2023-03-27T06:45:36.090Z,95736.63
2023-03-27T06:48:18.831Z,95729.22
2023-03-27T06:50:50.887Z,95701.84
2023-03-27T06:55:48.344Z,95685.00
2023-03-27T06:58:16.688Z,95679.38
2023-03-27T07:00:44.487Z,95673.78
2023-03-27T07:03:11.934Z,95668.16
2023-03-27T07:05:39.526Z,95655.63
2023-03-27T07:08:22.437Z,95658.06
2023-03-27T07:11:00.422Z,95645.72
2023-03-27T07:13:34.615Z,95640.41
2023-03-27T07:16:01.277Z,95639.13
2023-03-27T07:18:27.922Z,95625.16
2023-03-27T07:20:54.737Z,95627.13
2023-03-27T07:23:21.516Z,95612.13
2023-03-27T07:25:50.203Z,95633.56
2023-03-27T07:28:18.515Z,95637.75
2023-03-27T07:30:45.440Z,95633.38
2023-03-27T07:33:12.711Z,95639.63
2023-03-27T07:35:47.549Z,95642.88
2023-03-27T07:38:14.711Z,95646.22
2023-03-27T07:40:43.428Z,95646.47
2023-03-27T07:43:10.122Z,95654.22
2023-03-27T07:45:36.715Z,95659.72
2023-03-27T07:48:14.077Z,95646.13
2023-03-27T07:50:40.634Z,95637.41
2023-03-27T07:53:07.334Z,95631.28
2023-03-27T07:55:37.777Z,95615.88
2023-03-27T07:58:06.817Z,95617.88
2023-03-27T08:00:35.529Z,95607.00
2023-03-27T08:03:10.751Z,95617.19
2023-03-27T08:05:38.483Z,95600.31
2023-03-27T08:08:05.144Z,95597.63
2023-03-27T08:10:32.271Z,95573.66
2023-03-27T08:12:58.968Z,95579.97
2023-03-27T08:15:25.905Z,95575.22
2023-03-27T08:17:55.221Z,95581.44
2023-03-27T08:20:24.133Z,95574.28
2023-03-27T08:22:53.873Z,95575.50
2023-03-27T08:25:22.830Z,95573.19
2023-03-27T08:27:49.998Z,95588.63
2023-03-27T08:30:17.451Z,95574.75
2023-03-27T08:32:44.890Z,95564.66
2023-03-27T08:35:12.353Z,95559.75
2023-03-27T08:37:39.688Z,95568.72
2023-03-27T08:40:13.552Z,95573.78
2023-03-27T08:42:44.048Z,95595.13
2023-03-27T08:45:20.796Z,95587.94
2023-03-27T08:47:56.668Z,95592.41
2023-03-27T08:50:44.201Z,95569.34
2023-03-27T08:53:22.910Z,95571.91
2023-03-27T08:55:49.945Z,95571.50
2023-03-27T08:58:21.812Z,95567.78
2023-03-27T09:01:03.560Z,95551.88
2023-03-27T09:03:38.987Z,95557.41
2023-03-27T09:06:26.778Z,95564.22
2023-03-27T09:08:59.522Z,95571.66
2023-03-27T09:11:37.304Z,95573.41
2023-03-27T09:14:14.912Z,95579.91
2023-03-27T09:16:49.677Z,95567.94
2023-03-27T09:19:24.343Z,95545.63
2023-03-27T09:22:15.391Z,95561.66
2023-03-27T09:24:50.767Z,95548.22
2023-03-27T09:27:34.028Z,95564.59
2023-03-27T09:30:19.321Z,95560.66
2023-03-27T09:32:51.782Z,95554.81
2023-03-27T09:35:20.900Z,95556.03
2023-03-27T09:37:50.621Z,95522.19
2023-03-27T09:40:25.640Z,95547.78
2023-03-27T09:42:54.713Z,95577.84
2023-03-27T09:45:22.238Z,95572.03
2023-03-27T09:47:51.680Z,95574.13
2023-03-27T09:50:41.369Z,95573.84
2023-03-27T09:53:12.388Z,95563.66
2023-03-27T09:55:56.378Z,95560.84
2023-03-27T09:58:29.031Z,95568.06
2023-03-27T10:01:21.712Z,95571.94
2023-03-27T10:03:52.064Z,95559.44
2023-03-27T10:06:27.192Z,95551.75
2023-03-27T10:08:55.851Z,95553.28
2023-03-27T10:11:27.326Z,95549.28
2023-03-27T10:13:55.322Z,95524.66
2023-03-27T10:16:22.948Z,95521.03
2023-03-27T10:18:55.716Z,95516.28
2023-03-27T10:21:32.665Z,95515.47
2023-03-27T10:24:05.715Z,95502.00
2023-03-27T10:26:37.004Z,95543.53
2023-03-27T10:29:19.077Z,95538.09
2023-03-27T10:31:52.724Z,95527.97
2023-03-27T10:34:33.634Z,95506.47
2023-03-27T10:37:04.908Z,95517.25
2023-03-27T10:39:35.918Z,95511.84
2023-03-27T10:42:07.605Z,95508.03
2023-03-27T10:44:37.747Z,95546.09
2023-03-27T10:47:14.996Z,95517.53
2023-03-27T10:49:44.448Z,95537.16
2023-03-27T10:52:20.932Z,95562.00
2023-03-27T10:54:54.599Z,95567.16
2023-03-27T10:57:37.350Z,95549.63
2023-03-27T11:00:41.058Z,95564.38
2023-03-27T11:03:34.738Z,95584.00
2023-03-27T11:06:05.610Z,95590.16
2023-03-27T11:08:34.729Z,95584.50
2023-03-27T11:11:28.490Z,95591.63
2023-03-27T11:14:02.275Z,95608.06
2023-03-27T11:17:04.558Z,95606.66
2023-03-27T11:19:49.826Z,95621.53
2023-03-27T11:22:23.644Z,95630.13
2023-03-27T11:25:06.549Z,95641.31
2023-03-27T11:27:41.466Z,95629.06
2023-03-27T11:30:08.398Z,95645.47
2023-03-27T11:32:45.695Z,95647.88
2023-03-27T11:35:23.071Z,95660.47
2023-03-27T11:38:04.512Z,95630.25
2023-03-27T11:40:40.292Z,95614.88
2023-03-27T11:43:11.078Z,95616.09
2023-03-27T11:46:00.792Z,95615.06
2023-03-27T11:48:51.648Z,95616.00
2023-03-27T11:51:53.867Z,95641.78
2023-03-27T11:54:53.573Z,95645.75
2023-03-27T11:57:26.393Z,95665.19
2023-03-27T12:00:07.099Z,95689.50
2023-03-27T12:02:49.447Z,95707.19
2023-03-27T12:05:36.588Z,95715.34
2023-03-27T12:08:16.702Z,95720.91
2023-03-27T12:10:47.747Z,95746.97
2023-03-27T12:13:41.891Z,95764.19
2023-03-27T12:16:29.006Z,95770.47
2023-03-27T12:19:32.526Z,95774.53
2023-03-27T12:22:40.237Z,95775.09
2023-03-27T12:25:32.731Z,95767.31
2023-03-27T12:28:23.123Z,95746.34
2023-03-27T12:30:50.080Z,95740.31
2023-03-27T12:33:42.806Z,95738.78
2023-03-27T12:36:15.003Z,95731.56
2023-03-27T12:38:43.779Z,95754.75
2023-03-27T12:41:25.890Z,95747.47
2023-03-27T12:44:01.131Z,95740.69
2023-03-27T12:46:28.546Z,95753.53
2023-03-27T12:49:21.126Z,95735.44
2023-03-27T12:51:54.065Z,95727.59
2023-03-27T12:54:39.754Z,95724.78
2023-03-27T12:57:20.715Z,95719.16
2023-03-27T12:59:59.823Z,95707.91
2023-03-27T13:02:35.779Z,95711.06
2023-03-27T13:05:28.040Z,95707.00
2023-03-27T13:08:07.129Z,95697.00
2023-03-27T13:11:04.354Z,95697.28
2023-03-27T13:13:33.900Z,95675.56
2023-03-27T13:16:31.601Z,95680.38
2023-03-27T13:19:05.306Z,95691.91
2023-03-27T13:22:03.764Z,95700.31
2023-03-27T13:24:52.389Z,95682.91
2023-03-27T13:27:37.284Z,95666.56
2023-03-27T13:30:05.546Z,95675.41
2023-03-27T13:32:39.166Z,95664.16
2023-03-27T13:35:11.658Z,95675.19
2023-03-27T13:37:48.395Z,95681.88
2023-03-27T13:40:24.481Z,95676.59
2023-03-27T13:42:55.837Z,95668.88
2023-03-27T13:45:29.639Z,95648.34
2023-03-27T13:48:13.655Z,95609.31
2023-03-27T13:50:52.386Z,95593.59
2023-03-27T13:53:33.963Z,95620.56
2023-03-27T13:56:32.035Z,95588.00
2023-03-27T13:59:29.390Z,95589.03
2023-03-27T14:02:03.923Z,95602.00
2023-03-27T14:04:58.695Z,95624.09
2023-03-27T14:07:55.868Z,95619.34
2023-03-27T14:11:16.785Z,95621.75
2023-03-27T14:13:43.314Z,95633.06
2023-03-27T14:16:37.560Z,95617.28
2023-03-27T14:19:10.003Z,95630.84
2023-03-27T14:21:58.641Z,95634.38
2023-03-27T14:25:05.487Z,95623.75
2023-03-27T14:27:34.582Z,95622.50
2023-03-27T14:30:16.603Z,95618.22
2023-03-27T14:32:43.772Z,95622.34
2023-03-27T14:35:44.063Z,95616.53
2023-03-27T14:38:22.822Z,95626.47
2023-03-27T14:40:52.983Z,95632.28
2023-03-27T14:43:22.019Z,95627.59
2023-03-27T14:45:51.669Z,95619.44
2023-03-27T14:48:30.318Z,95622.22
2023-03-27T14:51:03.302Z,95627.06
2023-03-27T14:53:36.792Z,95622.47
2023-03-27T14:56:24.922Z,95620.13
2023-03-27T14:58:54.594Z,95616.56
2023-03-27T15:01:21.707Z,95611.94
2023-03-27T15:03:51.881Z,95605.06
2023-03-27T15:06:23.257Z,95599.72
2023-03-27T15:09:05.517Z,95602.22
2023-03-27T15:11:39.054Z,95598.16
2023-03-27T15:14:12.965Z,95594.56
2023-03-27T15:16:41.412Z,95590.59
2023-03-27T15:19:14.215Z,95577.91
2023-03-27T15:21:58.522Z,95587.00
2023-03-27T15:24:55.418Z,95579.28
2023-03-27T15:27:26.415Z,95585.13
2023-03-27T15:29:58.488Z,95571.81
2023-03-27T15:32:42.210Z,95568.44
2023-03-27T15:35:13.946Z,95570.97
2023-03-27T15:37:40.667Z,95569.91
2023-03-27T15:40:13.727Z,95569.16
2023-03-27T15:42:54.057Z,95574.84
2023-03-27T15:45:23.146Z,95563.28
2023-03-27T15:48:02.967Z,95572.06
2023-03-27T15:50:29.651Z,95574.47
2023-03-27T15:52:58.251Z,95571.22
2023-03-27T15:55:42.226Z,95573.84
2023-03-27T15:58:20.448Z,95586.22
2023-03-27T16:00:49.137Z,95571.50
2023-03-27T16:03:21.661Z,95584.06
2023-03-27T16:05:51.501Z,95593.59
2023-03-27T16:08:28.139Z,95588.81
2023-03-27T16:10:55.786Z,95586.25
2023-03-27T16:13:28.229Z,95571.06
2023-03-27T16:16:00.842Z,95585.13
2023-03-27T16:18:34.288Z,95578.69
2023-03-27T16:21:13.465Z,95571.28
2023-03-27T16:23:40.794Z,95566.41
2023-03-27T16:26:12.479Z,95577.44
2023-03-27T16:28:40.660Z,95572.81
2023-03-27T16:31:15.073Z,95568.69
2023-03-27T16:33:45.686Z,95569.38
2023-03-27T16:36:15.352Z,95543.53
2023-03-27T16:38:43.770Z,95578.59
2023-03-27T16:41:13.344Z,95572.06
2023-03-27T16:43:40.420Z,95566.78
2023-03-27T16:46:10.854Z,95570.69
2023-03-27T16:48:37.434Z,95565.44
2023-03-27T16:51:04.130Z,95568.81
2023-03-27T16:53:30.727Z,95566.53
2023-03-27T16:55:57.902Z,95571.13
2023-03-27T16:58:24.672Z,95571.59
2023-03-27T17:00:51.313Z,95583.38
2023-03-27T17:03:17.949Z,95576.75
2023-03-27T17:05:44.555Z,95582.31
2023-03-27T17:08:13.012Z,95578.22
2023-03-27T17:10:39.630Z,95590.22
2023-03-27T17:13:06.646Z,95586.72
2023-03-27T17:15:39.107Z,95580.88
2023-03-27T17:18:06.329Z,95598.78
2023-03-27T17:20:32.957Z,95558.19
2023-03-27T17:22:59.587Z,95596.75
2023-03-27T17:25:26.436Z,95606.13
2023-03-27T17:27:53.132Z,95597.69
2023-03-27T17:30:30.623Z,95598.91
2023-03-27T17:33:01.721Z,95603.72
2023-03-27T17:35:28.524Z,95608.38
2023-03-27T17:37:55.237Z,95613.19
2023-03-27T17:40:21.883Z,95610.91
2023-03-27T17:42:48.454Z,95613.97
2023-03-27T17:45:15.382Z,95599.09
2023-03-27T17:47:41.965Z,95611.34
2023-03-27T17:50:08.804Z,95616.50
2023-03-27T17:52:35.668Z,95622.41
2023-03-27T17:55:02.311Z,95626.72
2023-03-27T17:57:29.681Z,95625.41
2023-03-27T17:59:56.210Z,95620.56
2023-03-27T18:02:22.894Z,95629.72
2023-03-27T18:04:52.243Z,95615.88
2023-03-27T18:07:20.038Z,95603.25
2023-03-27T18:09:46.865Z,95621.81
2023-03-27T18:12:14.020Z,95620.56
2023-03-27T18:14:42.446Z,95626.09
2023-03-27T18:17:09.476Z,95625.78
2023-03-27T18:19:36.364Z,95610.53
2023-03-27T18:22:03.732Z,95623.91
2023-03-27T18:24:30.369Z,95621.59
2023-03-27T18:26:56.918Z,95638.34
2023-03-27T18:29:24.548Z,95628.63
2023-03-27T18:31:51.263Z,95620.38
2023-03-27T18:34:18.103Z,95621.34
2023-03-27T18:36:50.732Z,95633.66
2023-03-27T18:39:21.070Z,95643.03
2023-03-27T18:41:47.649Z,95648.28
2023-03-27T18:44:14.569Z,95653.53
2023-03-27T18:46:41.256Z,95639.28
2023-03-27T18:49:21.566Z,95651.75
2023-03-27T18:51:48.433Z,95656.50
2023-03-27T18:54:15.021Z,95660.50
2023-03-27T18:56:42.102Z,95665.59
2023-03-27T18:59:11.141Z,95667.16
2023-03-27T19:01:37.849Z,95679.31
2023-03-27T19:04:04.710Z,95673.72
2023-03-27T19:06:32.668Z,95670.63
2023-03-27T19:08:59.587Z,95676.81
2023-03-27T19:11:26.176Z,95676.41
2023-03-27T19:13:53.052Z,95685.66
2023-03-27T19:16:19.620Z,95694.91
2023-03-27T19:18:46.332Z,95694.13
2023-03-27T19:21:12.920Z,95700.63
2023-03-27T19:23:39.482Z,95708.47
2023-03-27T19:26:08.648Z,95726.25
2023-03-27T19:28:35.896Z,95751.59
2023-03-27T19:31:11.372Z,95746.78
2023-03-27T19:33:38.881Z,95760.09
2023-03-27T19:36:05.536Z,95760.22
2023-03-27T19:38:32.194Z,95761.25
2023-03-27T19:40:59.059Z,95760.97
2023-03-27T19:43:25.991Z,95747.66
2023-03-27T19:46:08.277Z,95786.75
2023-03-27T19:48:42.069Z,95792.03
2023-03-27T19:51:08.604Z,95802.00
2023-03-27T19:53:35.185Z,95809.19
2023-03-27T19:56:01.831Z,95818.25
2023-03-27T19:58:29.292Z,95831.38
2023-03-27T20:00:55.925Z,95845.47
2023-03-27T20:03:27.199Z,95823.28
2023-03-27T20:05:56.300Z,95852.13
2023-03-27T20:08:38.299Z,95846.13
2023-03-27T20:11:06.918Z,95837.53
2023-03-27T20:13:42.464Z,95842.34
2023-03-27T20:16:16.547Z,95864.41
2023-03-27T20:18:43.737Z,95797.09
2023-03-27T20:21:13.743Z,95855.53
2023-03-27T20:23:41.914Z,95863.31
2023-03-27T20:26:09.381Z,95872.06
2023-03-27T20:28:36.139Z,95877.34
2023-03-27T20:31:06.665Z,95872.84
2023-03-27T20:33:33.411Z,95873.19
2023-03-27T20:36:00.351Z,95884.47
2023-03-27T20:38:30.775Z,95883.53
2023-03-27T20:40:57.896Z,95878.25
2023-03-27T20:43:27.077Z,95876.72
2023-03-27T20:45:55.071Z,95889.13
2023-03-27T20:48:22.227Z,95890.78
2023-03-27T20:50:52.602Z,95894.66
2023-03-27T20:53:26.069Z,95897.09
2023-03-27T20:55:59.723Z,95904.19
2023-03-27T20:58:27.641Z,95912.97
2023-03-27T21:00:56.146Z,95885.88
2023-03-27T21:03:23.289Z,95903.06
2023-03-27T21:05:50.583Z,95902.31
2023-03-27T21:08:17.222Z,95907.59
2023-03-27T21:10:53.046Z,95903.84
2023-03-27T21:13:20.110Z,95878.91
2023-03-27T21:15:46.810Z,95892.84
2023-03-27T21:18:13.366Z,95906.41
2023-03-27T21:20:39.944Z,95903.13
2023-03-27T21:23:06.549Z,95900.66
2023-03-27T21:25:34.228Z,95902.19
2023-03-27T21:28:00.949Z,95911.00
2023-03-27T21:30:46.472Z,95898.34
2023-03-27T21:33:15.898Z,95910.25
2023-03-27T21:35:45.781Z,95892.41
2023-03-27T21:38:13.837Z,95904.81
2023-03-27T21:40:41.253Z,95905.75
2023-03-27T21:43:08.485Z,95910.56
2023-03-27T21:45:36.119Z,95913.22
2023-03-27T21:48:02.917Z,95913.25
2023-03-27T21:50:29.678Z,95921.53
2023-03-27T21:52:56.467Z,95919.22
2023-03-27T21:55:23.427Z,95913.63
2023-03-27T21:57:50.071Z,95929.13
2023-03-27T22:00:16.881Z,95922.59
2023-03-27T22:02:43.587Z,95931.91
2023-03-27T22:05:10.392Z,95940.31
2023-03-27T22:07:36.934Z,95933.47
2023-03-27T22:10:06.341Z,95943.88
2023-03-27T22:12:37.336Z,95944.66
2023-03-27T22:15:06.040Z,95941.88
2023-03-27T22:17:34.681Z,95945.25
2023-03-27T22:20:01.222Z,95950.69
2023-03-27T22:22:27.909Z,95928.81
2023-03-27T22:24:54.443Z,95943.59
2023-03-27T22:27:21.030Z,95941.50
2023-03-27T22:29:47.602Z,95947.88
2023-03-27T22:32:14.159Z,95940.41
2023-03-27T22:34:40.727Z,95939.16
2023-03-27T22:37:07.364Z,95950.19
2023-03-27T22:39:33.958Z,95942.13
2023-03-27T22:42:00.762Z,95958.13
2023-03-27T22:44:29.738Z,95967.75
2023-03-27T22:46:56.636Z,95964.66
2023-03-27T22:49:23.204Z,95970.66
2023-03-27T22:51:49.712Z,95970.66
2023-03-27T22:54:18.576Z,95984.00
2023-03-27T22:56:47.115Z,95984.78
2023-03-27T22:59:14.839Z,95994.41
2023-03-27T23:01:41.456Z,96004.47
2023-03-27T23:04:08.030Z,95998.59
2023-03-27T23:06:34.846Z,96005.09
2023-03-27T23:09:01.438Z,96017.22
2023-03-27T23:11:28.130Z,96013.16
2023-03-27T23:13:54.798Z,96016.88
2023-03-27T23:16:21.528Z,96033.69
2023-03-27T23:18:48.171Z,96036.50
2023-03-27T23:21:17.696Z,96043.31
2023-03-27T23:23:45.223Z,96034.22
2023-03-27T23:26:12.821Z,96057.97
2023-03-27T23:28:41.714Z,96053.31
2023-03-27T23:31:12.214Z,96062.31
2023-03-27T23:33:41.531Z,96066.66
2023-03-27T23:36:10.834Z,96077.53
2023-03-27T23:38:38.125Z,96067.16
2023-03-27T23:41:06.194Z,96084.06
2023-03-27T23:43:32.890Z,96071.81
2023-03-27T23:45:59.927Z,96085.63
2023-03-27T23:48:30.453Z,96086.53
2023-03-27T23:50:57.738Z,96100.34
2023-03-27T23:53:26.189Z,96098.59
2023-03-27T23:55:53.958Z,96106.19
2023-03-27T23:58:20.832Z,96110.84
